sensor_id;sensor_type;location;lat;lon;timestamp;P1;durP1;ratioP1;P2;durP2;ratioP2
6902;SDS011;20232;49.408;8.702;2023-02-18T05:02:23;8.37;;;7.67;;
6902;SDS011;20232;49.408;8.702;2023-02-18T05:04:49;7.53;;;6.93;;
6902;SDS011;20232;49.408;8.702;2023-02-18T05:07:15;8.07;;;7.33;;
6902;SDS011;20232;49.408;8.702;2023-02-18T05:09:40;8.47;;;7.70;;
6902;SDS011;20232;49.408;8.702;2023-02-18T05:12:06;8.73;;;8.03;;
6902;SDS011;20232;49.408;8.702;2023-02-18T05:14:31;8.83;;;8.03;;
6902;SDS011;20232;49.408;8.702;2023-02-18T05:16:57;8.67;;;7.87;;
6902;SDS011;20232;49.408;8.702;2023-02-18T05:19:23;8.40;;;7.60;;
6902;SDS011;20232;49.408;8.702;2023-02-18T05:21:48;8.30;;;7.50;;
6902;SDS011;20232;49.408;8.702;2023-02-18T05:24:14;9.17;;;8.27;;
6902;SDS011;20232;49.408;8.702;2023-02-18T05:26:39;9.30;;;8.50;;
6902;SDS011;20232;49.408;8.702;2023-02-18T05:29:05;9.20;;;8.50;;
6902;SDS011;20232;49.408;8.702;2023-02-18T05:31:31;11.63;;;8.87;;
6902;SDS011;20232;49.408;8.702;2023-02-18T05:33:56;8.93;;;8.17;;
6902;SDS011;20232;49.408;8.702;2023-02-18T05:36:22;9.43;;;8.53;;
6902;SDS011;20232;49.408;8.702;2023-02-18T05:38:47;9.00;;;8.10;;
6902;SDS011;20232;49.408;8.702;2023-02-18T05:41:13;9.00;;;8.20;;
6902;SDS011;20232;49.408;8.702;2023-02-18T05:43:39;10.13;;;9.23;;
6902;SDS011;20232;49.408;8.702;2023-02-18T05:46:23;8.87;;;7.97;;
6902;SDS011;20232;49.408;8.702;2023-02-18T05:48:49;8.33;;;7.57;;
6902;SDS011;20232;49.408;8.702;2023-02-18T05:51:14;10.23;;;9.40;;
6902;SDS011;20232;49.408;8.702;2023-02-18T05:53:40;8.87;;;8.07;;
6902;SDS011;20232;49.408;8.702;2023-02-18T05:56:06;9.30;;;8.50;;
6902;SDS011;20232;49.408;8.702;2023-02-18T05:58:31;8.80;;;8.10;;
6902;SDS011;20232;49.408;8.702;2023-02-18T06:00:57;8.57;;;7.87;;
6902;SDS011;20232;49.408;8.702;2023-02-18T06:03:22;8.67;;;7.97;;
6902;SDS011;20232;49.408;8.702;2023-02-18T06:05:48;9.80;;;8.80;;
6902;SDS011;20232;49.408;8.702;2023-02-18T06:08:15;10.87;;;8.73;;
6902;SDS011;20232;49.408;8.702;2023-02-18T06:10:40;9.80;;;9.00;;
6902;SDS011;20232;49.408;8.702;2023-02-18T06:13:06;9.97;;;9.17;;
6902;SDS011;20232;49.408;8.702;2023-02-18T06:15:31;10.27;;;9.47;;
6902;SDS011;20232;49.408;8.702;2023-02-18T06:17:57;9.97;;;9.07;;
6902;SDS011;20232;49.408;8.702;2023-02-18T06:20:22;9.20;;;8.40;;
6902;SDS011;20232;49.408;8.702;2023-02-18T06:22:48;9.50;;;8.70;;
6902;SDS011;20232;49.408;8.702;2023-02-18T06:25:14;9.50;;;8.60;;
6902;SDS011;20232;49.408;8.702;2023-02-18T06:27:39;10.63;;;9.63;;
6902;SDS011;20232;49.408;8.702;2023-02-18T06:30:05;9.37;;;8.57;;
6902;SDS011;20232;49.408;8.702;2023-02-18T06:32:31;9.40;;;8.50;;
6902;SDS011;20232;49.408;8.702;2023-02-18T06:34:56;9.47;;;8.57;;
6902;SDS011;20232;49.408;8.702;2023-02-18T06:37:22;9.47;;;8.60;;
6902;SDS011;20232;49.408;8.702;2023-02-18T06:39:48;10.17;;;9.23;;
6902;SDS011;20232;49.408;8.702;2023-02-18T06:42:13;9.20;;;8.30;;
6902;SDS011;20232;49.408;8.702;2023-02-18T06:44:39;9.67;;;8.77;;
6902;SDS011;20232;49.408;8.702;2023-02-18T06:47:04;8.83;;;8.03;;
6902;SDS011;20232;49.408;8.702;2023-02-18T06:49:30;8.57;;;7.67;;
6902;SDS011;20232;49.408;8.702;2023-02-18T06:51:55;8.77;;;8.07;;
6902;SDS011;20232;49.408;8.702;2023-02-18T06:54:21;8.27;;;7.47;;
6902;SDS011;20232;49.408;8.702;2023-02-18T06:56:46;8.80;;;7.90;;
6902;SDS011;20232;49.408;8.702;2023-02-18T06:59:12;7.93;;;7.23;;
6902;SDS011;20232;49.408;8.702;2023-02-18T07:01:38;7.83;;;7.13;;
6902;SDS011;20232;49.408;8.702;2023-02-18T07:04:03;8.43;;;7.63;;
6902;SDS011;20232;49.408;8.702;2023-02-18T07:06:29;8.30;;;7.60;;
6902;SDS011;20232;49.408;8.702;2023-02-18T07:08:54;8.03;;;7.23;;
6902;SDS011;20232;49.408;8.702;2023-02-18T07:11:20;8.50;;;7.63;;
6902;SDS011;20232;49.408;8.702;2023-02-18T07:13:46;7.83;;;7.13;;
6902;SDS011;20232;49.408;8.702;2023-02-18T07:16:11;7.63;;;7.03;;
6902;SDS011;20232;49.408;8.702;2023-02-18T07:18:37;8.03;;;7.23;;
6902;SDS011;20232;49.408;8.702;2023-02-18T07:21:02;8.50;;;7.70;;
6902;SDS011;20232;49.408;8.702;2023-02-18T07:23:28;7.10;;;6.50;;
6902;SDS011;20232;49.408;8.702;2023-02-18T07:26:01;7.50;;;6.80;;
6902;SDS011;20232;49.408;8.702;2023-02-18T07:28:37;7.50;;;6.83;;
6902;SDS011;20232;49.408;8.702;2023-02-18T07:31:04;7.40;;;6.70;;
6902;SDS011;20232;49.408;8.702;2023-02-18T07:33:29;7.00;;;6.40;;
6902;SDS011;20232;49.408;8.702;2023-02-18T07:35:56;8.37;;;6.77;;
6902;SDS011;20232;49.408;8.702;2023-02-18T07:38:24;7.07;;;6.47;;
6902;SDS011;20232;49.408;8.702;2023-02-18T07:40:50;6.97;;;6.37;;
6902;SDS011;20232;49.408;8.702;2023-02-18T07:43:16;7.00;;;6.40;;
6902;SDS011;20232;49.408;8.702;2023-02-18T07:45:42;6.67;;;6.03;;
6902;SDS011;20232;49.408;8.702;2023-02-18T07:48:08;6.30;;;5.80;;
6902;SDS011;20232;49.408;8.702;2023-02-18T07:50:34;7.10;;;6.43;;
6902;SDS011;20232;49.408;8.702;2023-02-18T07:53:02;6.90;;;6.23;;
6902;SDS011;20232;49.408;8.702;2023-02-18T07:55:29;6.70;;;6.10;;
6902;SDS011;20232;49.408;8.702;2023-02-18T07:58:13;6.60;;;6.10;;
6902;SDS011;20232;49.408;8.702;2023-02-18T08:00:40;6.50;;;5.90;;
6902;SDS011;20232;49.408;8.702;2023-02-18T08:03:05;5.87;;;5.40;;
6902;SDS011;20232;49.408;8.702;2023-02-18T08:05:31;6.40;;;5.80;;
6902;SDS011;20232;49.408;8.702;2023-02-18T08:07:57;7.27;;;5.90;;
6902;SDS011;20232;49.408;8.702;2023-02-18T08:10:22;6.43;;;5.83;;
6902;SDS011;20232;49.408;8.702;2023-02-18T08:12:48;6.30;;;5.80;;
6902;SDS011;20232;49.408;8.702;2023-02-18T08:15:13;6.27;;;5.70;;
6902;SDS011;20232;49.408;8.702;2023-02-18T08:17:39;6.23;;;5.63;;
6902;SDS011;20232;49.408;8.702;2023-02-18T08:20:05;5.80;;;5.40;;
6902;SDS011;20232;49.408;8.702;2023-02-18T08:22:31;5.90;;;5.40;;
6902;SDS011;20232;49.408;8.702;2023-02-18T08:24:56;6.43;;;5.83;;
6902;SDS011;20232;49.408;8.702;2023-02-18T08:27:22;6.07;;;5.57;;
6902;SDS011;20232;49.408;8.702;2023-02-18T08:29:48;5.90;;;5.43;;
6902;SDS011;20232;49.408;8.702;2023-02-18T08:32:14;5.87;;;5.43;;
6902;SDS011;20232;49.408;8.702;2023-02-18T08:34:39;5.63;;;5.17;;
6902;SDS011;20232;49.408;8.702;2023-02-18T08:37:05;5.83;;;5.23;;
6902;SDS011;20232;49.408;8.702;2023-02-18T08:39:34;5.60;;;5.10;;
6902;SDS011;20232;49.408;8.702;2023-02-18T08:42:00;6.47;;;5.77;;
6902;SDS011;20232;49.408;8.702;2023-02-18T08:44:26;6.03;;;5.47;;
6902;SDS011;20232;49.408;8.702;2023-02-18T08:46:52;5.77;;;5.23;;
6902;SDS011;20232;49.408;8.702;2023-02-18T08:49:18;6.07;;;5.57;;
6902;SDS011;20232;49.408;8.702;2023-02-18T08:51:45;5.90;;;5.40;;
6902;SDS011;20232;49.408;8.702;2023-02-18T08:54:11;6.23;;;5.63;;
6902;SDS011;20232;49.408;8.702;2023-02-18T08:56:37;5.90;;;5.40;;
6902;SDS011;20232;49.408;8.702;2023-02-18T08:59:03;6.33;;;5.60;;
6902;SDS011;20232;49.408;8.702;2023-02-18T09:01:29;5.67;;;5.17;;
6902;SDS011;20232;49.408;8.702;2023-02-18T09:03:55;6.17;;;5.57;;
6902;SDS011;20232;49.408;8.702;2023-02-18T09:06:21;5.83;;;5.30;;
6902;SDS011;20232;49.408;8.702;2023-02-18T09:08:47;5.00;;;4.60;;
6902;SDS011;20232;49.408;8.702;2023-02-18T09:11:13;5.43;;;4.93;;
6902;SDS011;20232;49.408;8.702;2023-02-18T09:13:39;5.63;;;5.07;;
6902;SDS011;20232;49.408;8.702;2023-02-18T09:16:06;5.90;;;5.30;;
6902;SDS011;20232;49.408;8.702;2023-02-18T09:18:36;5.23;;;4.80;;
6902;SDS011;20232;49.408;8.702;2023-02-18T09:21:02;5.70;;;5.20;;
6902;SDS011;20232;49.408;8.702;2023-02-18T09:23:31;5.77;;;4.87;;
6902;SDS011;20232;49.408;8.702;2023-02-18T09:25:57;6.23;;;5.00;;
6902;SDS011;20232;49.408;8.702;2023-02-18T09:28:23;6.03;;;5.30;;
6902;SDS011;20232;49.408;8.702;2023-02-18T09:30:49;5.60;;;5.10;;
6902;SDS011;20232;49.408;8.702;2023-02-18T09:33:15;6.03;;;5.43;;
6902;SDS011;20232;49.408;8.702;2023-02-18T09:35:42;5.40;;;4.90;;
6902;SDS011;20232;49.408;8.702;2023-02-18T09:38:09;5.70;;;5.20;;
6902;SDS011;20232;49.408;8.702;2023-02-18T09:40:36;5.80;;;5.30;;
6902;SDS011;20232;49.408;8.702;2023-02-18T09:43:17;5.90;;;5.40;;
6902;SDS011;20232;49.408;8.702;2023-02-18T09:45:53;5.83;;;5.33;;
6902;SDS011;20232;49.408;8.702;2023-02-18T09:48:21;6.53;;;5.73;;
6902;SDS011;20232;49.408;8.702;2023-02-18T09:50:51;5.60;;;5.10;;
6902;SDS011;20232;49.408;8.702;2023-02-18T09:53:17;6.27;;;5.67;;
6902;SDS011;20232;49.408;8.702;2023-02-18T09:55:45;5.30;;;4.80;;
6902;SDS011;20232;49.408;8.702;2023-02-18T10:00:41;6.87;;;5.67;;
6902;SDS011;20232;49.408;8.702;2023-02-18T10:03:15;5.93;;;5.37;;
6902;SDS011;20232;49.408;8.702;2023-02-18T10:06:25;5.67;;;5.17;;
6902;SDS011;20232;49.408;8.702;2023-02-18T10:08:35;5.97;;;5.40;;
6902;SDS011;20232;49.408;8.702;2023-02-18T10:11:16;6.17;;;5.30;;
6902;SDS011;20232;49.408;8.702;2023-02-18T10:14:01;6.00;;;5.40;;
6902;SDS011;20232;49.408;8.702;2023-02-18T10:16:28;6.83;;;5.30;;
6902;SDS011;20232;49.408;8.702;2023-02-18T10:18:55;5.97;;;5.30;;
6902;SDS011;20232;49.408;8.702;2023-02-18T10:21:24;6.50;;;5.23;;
6902;SDS011;20232;49.408;8.702;2023-02-18T10:26:28;5.67;;;4.70;;
6902;SDS011;20232;49.408;8.702;2023-02-18T10:28:56;5.40;;;4.90;;
6902;SDS011;20232;49.408;8.702;2023-02-18T10:31:35;6.23;;;5.07;;
6902;SDS011;20232;49.408;8.702;2023-02-18T10:36:54;5.67;;;5.17;;
6902;SDS011;20232;49.408;8.702;2023-02-18T10:47:43;5.57;;;4.87;;
6902;SDS011;20232;49.408;8.702;2023-02-18T10:53:02;5.73;;;5.20;;
6902;SDS011;20232;49.408;8.702;2023-02-18T10:55:55;5.20;;;4.80;;
6902;SDS011;20232;49.408;8.702;2023-02-18T10:58:25;5.60;;;5.10;;
6902;SDS011;20232;49.408;8.702;2023-02-18T11:00:53;5.93;;;5.33;;
6902;SDS011;20232;49.408;8.702;2023-02-18T11:03:21;5.30;;;4.80;;
6902;SDS011;20232;49.408;8.702;2023-02-18T11:05:52;7.60;;;5.17;;
6902;SDS011;20232;49.408;8.702;2023-02-18T11:08:24;5.40;;;4.90;;
6902;SDS011;20232;49.408;8.702;2023-02-18T11:10:51;5.33;;;4.83;;
6902;SDS011;20232;49.408;8.702;2023-02-18T11:13:27;6.60;;;5.07;;
6902;SDS011;20232;49.408;8.702;2023-02-18T11:16:14;5.93;;;5.03;;
6902;SDS011;20232;49.408;8.702;2023-02-18T11:18:41;6.17;;;4.93;;
6902;SDS011;20232;49.408;8.702;2023-02-18T11:21:29;5.70;;;5.10;;
6902;SDS011;20232;49.408;8.702;2023-02-18T11:24:04;6.20;;;5.30;;
6902;SDS011;20232;49.408;8.702;2023-02-18T11:26:39;6.37;;;5.70;;
6902;SDS011;20232;49.408;8.702;2023-02-18T11:29:26;7.47;;;6.77;;
6902;SDS011;20232;49.408;8.702;2023-02-18T11:31:54;7.97;;;6.90;;
6902;SDS011;20232;49.408;8.702;2023-02-18T11:34:22;8.20;;;7.40;;
6902;SDS011;20232;49.408;8.702;2023-02-18T11:36:51;9.20;;;8.30;;
6902;SDS011;20232;49.408;8.702;2023-02-18T11:39:18;8.90;;;8.00;;
6902;SDS011;20232;49.408;8.702;2023-02-18T11:41:46;8.93;;;8.07;;
6902;SDS011;20232;49.408;8.702;2023-02-18T11:44:36;9.93;;;8.93;;
6902;SDS011;20232;49.408;8.702;2023-02-18T11:49:33;9.60;;;8.70;;
6902;SDS011;20232;49.408;8.702;2023-02-18T11:52:03;10.03;;;9.03;;
6902;SDS011;20232;49.408;8.702;2023-02-18T11:54:41;10.30;;;9.27;;
6902;SDS011;20232;49.408;8.702;2023-02-18T11:57:10;10.00;;;9.00;;
6902;SDS011;20232;49.408;8.702;2023-02-18T11:59:38;10.37;;;8.73;;
6902;SDS011;20232;49.408;8.702;2023-02-18T12:02:11;9.27;;;8.40;;
6902;SDS011;20232;49.408;8.702;2023-02-18T12:04:51;9.60;;;8.70;;
6902;SDS011;20232;49.408;8.702;2023-02-18T12:10:48;9.57;;;8.50;;
6902;SDS011;20232;49.408;8.702;2023-02-18T12:23:47;8.77;;;7.90;;
6902;SDS011;20232;49.408;8.702;2023-02-18T12:26:28;8.97;;;8.10;;
6902;SDS011;20232;49.408;8.702;2023-02-18T12:34:42;8.33;;;7.53;;
6902;SDS011;20232;49.408;8.702;2023-02-18T13:10:43;6.87;;;6.27;;
6902;SDS011;20232;49.408;8.702;2023-02-18T13:13:38;6.57;;;5.97;;
6902;SDS011;20232;49.408;8.702;2023-02-18T13:16:09;6.80;;;6.10;;
6902;SDS011;20232;49.408;8.702;2023-02-18T13:18:46;9.10;;;6.37;;
6902;SDS011;20232;49.408;8.702;2023-02-18T13:21:32;7.93;;;5.80;;
6902;SDS011;20232;49.408;8.702;2023-02-18T13:24:04;6.50;;;5.97;;
6902;SDS011;20232;49.408;8.702;2023-02-18T13:26:35;7.13;;;5.53;;
6902;SDS011;20232;49.408;8.702;2023-02-18T13:32:08;7.80;;;5.57;;
6902;SDS011;20232;49.408;8.702;2023-02-18T13:35:16;6.37;;;5.77;;
6902;SDS011;20232;49.408;8.702;2023-02-18T13:41:07;6.03;;;5.33;;
6902;SDS011;20232;49.408;8.702;2023-02-18T13:43:33;5.70;;;5.20;;
6902;SDS011;20232;49.408;8.702;2023-02-18T13:46:01;5.87;;;5.10;;
6902;SDS011;20232;49.408;8.702;2023-02-18T13:48:41;5.43;;;4.93;;
6902;SDS011;20232;49.408;8.702;2023-02-18T13:51:13;6.37;;;5.23;;
6902;SDS011;20232;49.408;8.702;2023-02-18T13:53:42;5.60;;;5.03;;
6902;SDS011;20232;49.408;8.702;2023-02-18T13:56:22;6.77;;;5.13;;
6902;SDS011;20232;49.408;8.702;2023-02-18T13:59:07;5.33;;;4.83;;
6902;SDS011;20232;49.408;8.702;2023-02-18T14:01:37;6.43;;;5.10;;
6902;SDS011;20232;49.408;8.702;2023-02-18T14:04:54;5.23;;;4.70;;
6902;SDS011;20232;49.408;8.702;2023-02-18T14:09:46;6.13;;;5.30;;
6902;SDS011;20232;49.408;8.702;2023-02-18T14:14:47;5.77;;;5.17;;
6902;SDS011;20232;49.408;8.702;2023-02-18T14:19:54;5.70;;;5.00;;
6902;SDS011;20232;49.408;8.702;2023-02-18T14:22:47;5.80;;;5.03;;
6902;SDS011;20232;49.408;8.702;2023-02-18T14:28:00;5.80;;;5.17;;
6902;SDS011;20232;49.408;8.702;2023-02-18T14:30:49;5.57;;;5.07;;
6902;SDS011;20232;49.408;8.702;2023-02-18T14:33:15;5.73;;;5.17;;
6902;SDS011;20232;49.408;8.702;2023-02-18T14:46:49;5.60;;;5.13;;
6902;SDS011;20232;49.408;8.702;2023-02-18T14:49:32;6.47;;;5.40;;
6902;SDS011;20232;49.408;8.702;2023-02-18T14:52:03;6.17;;;5.63;;
6902;SDS011;20232;49.408;8.702;2023-02-18T14:54:34;6.83;;;6.03;;
6902;SDS011;20232;49.408;8.702;2023-02-18T14:57:05;5.97;;;5.47;;
6902;SDS011;20232;49.408;8.702;2023-02-18T14:59:34;7.17;;;5.63;;
6902;SDS011;20232;49.408;8.702;2023-02-18T15:02:08;6.50;;;5.47;;
6902;SDS011;20232;49.408;8.702;2023-02-18T15:04:46;10.70;;;5.73;;
6902;SDS011;20232;49.408;8.702;2023-02-18T15:07:17;6.77;;;6.10;;
6902;SDS011;20232;49.408;8.702;2023-02-18T15:09:44;5.93;;;5.13;;
6902;SDS011;20232;49.408;8.702;2023-02-18T15:12:13;7.13;;;5.37;;
6902;SDS011;20232;49.408;8.702;2023-02-18T15:14:42;5.70;;;5.20;;
6902;SDS011;20232;49.408;8.702;2023-02-18T15:17:13;5.83;;;5.30;;
6902;SDS011;20232;49.408;8.702;2023-02-18T15:19:43;6.77;;;5.93;;
6902;SDS011;20232;49.408;8.702;2023-02-18T15:22:16;6.00;;;5.40;;
6902;SDS011;20232;49.408;8.702;2023-02-18T15:24:44;7.00;;;5.70;;
6902;SDS011;20232;49.408;8.702;2023-02-18T15:27:18;7.83;;;5.87;;
6902;SDS011;20232;49.408;8.702;2023-02-18T15:29:48;7.73;;;5.83;;
6902;SDS011;20232;49.408;8.702;2023-02-18T15:32:21;6.10;;;5.60;;
6902;SDS011;20232;49.408;8.702;2023-02-18T15:34:52;8.53;;;5.60;;
6902;SDS011;20232;49.408;8.702;2023-02-18T15:37:20;6.60;;;5.33;;
6902;SDS011;20232;49.408;8.702;2023-02-18T15:39:45;5.90;;;5.40;;
6902;SDS011;20232;49.408;8.702;2023-02-18T15:42:23;6.30;;;5.70;;
6902;SDS011;20232;49.408;8.702;2023-02-18T15:44:57;5.77;;;5.27;;
6902;SDS011;20232;49.408;8.702;2023-02-18T15:47:28;5.93;;;5.40;;
6902;SDS011;20232;49.408;8.702;2023-02-18T15:49:55;5.70;;;5.10;;
6902;SDS011;20232;49.408;8.702;2023-02-18T15:52:27;5.97;;;5.47;;
6902;SDS011;20232;49.408;8.702;2023-02-18T15:54:56;6.00;;;5.40;;
6902;SDS011;20232;49.408;8.702;2023-02-18T15:57:27;6.50;;;5.90;;
6902;SDS011;20232;49.408;8.702;2023-02-18T15:59:56;7.63;;;5.73;;
6902;SDS011;20232;49.408;8.702;2023-02-18T16:02:28;6.07;;;5.53;;
6902;SDS011;20232;49.408;8.702;2023-02-18T16:04:58;6.97;;;6.33;;
6902;SDS011;20232;49.408;8.702;2023-02-18T16:07:29;6.57;;;5.60;;
6902;SDS011;20232;49.408;8.702;2023-02-18T16:10:06;6.40;;;5.80;;
6902;SDS011;20232;49.408;8.702;2023-02-18T16:12:45;6.83;;;6.20;;
6902;SDS011;20232;49.408;8.702;2023-02-18T16:15:15;6.70;;;6.10;;
6902;SDS011;20232;49.408;8.702;2023-02-18T16:17:49;7.10;;;6.43;;
6902;SDS011;20232;49.408;8.702;2023-02-18T16:20:34;6.93;;;6.10;;
6902;SDS011;20232;49.408;8.702;2023-02-18T16:23:02;6.67;;;6.07;;
6902;SDS011;20232;49.408;8.702;2023-02-18T16:25:42;7.27;;;6.20;;
6902;SDS011;20232;49.408;8.702;2023-02-18T16:30:47;6.97;;;6.27;;
6902;SDS011;20232;49.408;8.702;2023-02-18T16:33:13;6.70;;;6.10;;
6902;SDS011;20232;49.408;8.702;2023-02-18T16:35:38;6.73;;;6.13;;
6902;SDS011;20232;49.408;8.702;2023-02-18T16:38:05;7.93;;;6.17;;
6902;SDS011;20232;49.408;8.702;2023-02-18T16:40:37;7.70;;;6.63;;
6902;SDS011;20232;49.408;8.702;2023-02-18T16:43:08;6.73;;;6.00;;
6902;SDS011;20232;49.408;8.702;2023-02-18T16:45:40;7.27;;;6.53;;
6902;SDS011;20232;49.408;8.702;2023-02-18T16:50:55;7.23;;;6.50;;
6902;SDS011;20232;49.408;8.702;2023-02-18T16:53:23;6.60;;;6.00;;
6902;SDS011;20232;49.408;8.702;2023-02-18T16:55:49;7.50;;;6.80;;
6902;SDS011;20232;49.408;8.702;2023-02-18T16:58:15;7.43;;;6.50;;
6902;SDS011;20232;49.408;8.702;2023-02-18T17:00:41;7.47;;;6.57;;
6902;SDS011;20232;49.408;8.702;2023-02-18T17:03:08;7.10;;;6.40;;
6902;SDS011;20232;49.408;8.702;2023-02-18T17:05:34;7.33;;;6.63;;
6902;SDS011;20232;49.408;8.702;2023-02-18T17:10:47;7.07;;;6.37;;
6902;SDS011;20232;49.408;8.702;2023-02-18T17:13:16;7.50;;;6.03;;
6902;SDS011;20232;49.408;8.702;2023-02-18T17:15:43;6.80;;;6.10;;
6902;SDS011;20232;49.408;8.702;2023-02-18T17:18:09;7.20;;;6.50;;
6902;SDS011;20232;49.408;8.702;2023-02-18T17:20:35;7.63;;;6.00;;
6902;SDS011;20232;49.408;8.702;2023-02-18T17:23:01;7.23;;;6.63;;
6902;SDS011;20232;49.408;8.702;2023-02-18T17:25:31;7.27;;;6.57;;
6902;SDS011;20232;49.408;8.702;2023-02-18T17:28:02;6.90;;;6.27;;
6902;SDS011;20232;49.408;8.702;2023-02-18T17:30:29;7.40;;;6.70;;
6902;SDS011;20232;49.408;8.702;2023-02-18T17:32:57;7.57;;;6.87;;
6902;SDS011;20232;49.408;8.702;2023-02-18T17:35:24;7.20;;;6.50;;
6902;SDS011;20232;49.408;8.702;2023-02-18T17:37:51;7.00;;;6.37;;
6902;SDS011;20232;49.408;8.702;2023-02-18T17:40:21;7.17;;;6.47;;
6902;SDS011;20232;49.408;8.702;2023-02-18T17:42:52;7.20;;;6.60;;
6902;SDS011;20232;49.408;8.702;2023-02-18T17:45:26;8.13;;;7.33;;
6902;SDS011;20232;49.408;8.702;2023-02-18T17:47:54;7.40;;;6.30;;
6902;SDS011;20232;49.408;8.702;2023-02-18T17:50:21;7.53;;;6.83;;
6902;SDS011;20232;49.408;8.702;2023-02-18T17:52:50;8.07;;;6.80;;
6902;SDS011;20232;49.408;8.702;2023-02-18T17:55:18;8.00;;;7.30;;
6902;SDS011;20232;49.408;8.702;2023-02-18T17:57:45;7.87;;;7.17;;
6902;SDS011;20232;49.408;8.702;2023-02-18T18:00:12;7.20;;;6.60;;
6902;SDS011;20232;49.408;8.702;2023-02-18T18:02:40;8.00;;;6.40;;
6902;SDS011;20232;49.408;8.702;2023-02-18T18:05:09;7.57;;;6.87;;
6902;SDS011;20232;49.408;8.702;2023-02-18T18:07:58;7.73;;;6.90;;
6902;SDS011;20232;49.408;8.702;2023-02-18T18:10:25;8.57;;;7.77;;
6902;SDS011;20232;49.408;8.702;2023-02-18T18:12:55;7.87;;;7.10;;
6902;SDS011;20232;49.408;8.702;2023-02-18T18:15:32;8.57;;;7.77;;
6902;SDS011;20232;49.408;8.702;2023-02-18T18:18:01;8.47;;;7.60;;
6902;SDS011;20232;49.408;8.702;2023-02-18T18:20:27;8.20;;;7.40;;
6902;SDS011;20232;49.408;8.702;2023-02-18T18:22:55;7.70;;;7.00;;
6902;SDS011;20232;49.408;8.702;2023-02-18T18:25:26;7.97;;;7.27;;
6902;SDS011;20232;49.408;8.702;2023-02-18T18:27:52;8.97;;;7.60;;
6902;SDS011;20232;49.408;8.702;2023-02-18T18:30:19;10.77;;;8.07;;
6902;SDS011;20232;49.408;8.702;2023-02-18T18:32:49;9.00;;;7.77;;
6902;SDS011;20232;49.408;8.702;2023-02-18T18:35:20;8.60;;;7.70;;
6902;SDS011;20232;49.408;8.702;2023-02-18T18:37:56;9.30;;;7.53;;
6902;SDS011;20232;49.408;8.702;2023-02-18T18:40:23;12.10;;;9.90;;
6902;SDS011;20232;49.408;8.702;2023-02-18T18:42:52;8.40;;;7.70;;
6902;SDS011;20232;49.408;8.702;2023-02-18T18:45:20;8.87;;;7.97;;
6902;SDS011;20232;49.408;8.702;2023-02-18T18:47:47;8.10;;;7.30;;
6902;SDS011;20232;49.408;8.702;2023-02-18T18:50:13;9.00;;;7.50;;
6902;SDS011;20232;49.408;8.702;2023-02-18T18:52:39;7.57;;;6.87;;
6902;SDS011;20232;49.408;8.702;2023-02-18T18:57:42;8.13;;;7.40;;
6902;SDS011;20232;49.408;8.702;2023-02-18T19:00:07;8.70;;;7.90;;
6902;SDS011;20232;49.408;8.702;2023-02-18T19:02:34;8.13;;;7.33;;
6902;SDS011;20232;49.408;8.702;2023-02-18T19:05:00;8.63;;;7.77;;
6902;SDS011;20232;49.408;8.702;2023-02-18T19:07:27;7.90;;;7.30;;
6902;SDS011;20232;49.408;8.702;2023-02-18T19:09:53;8.03;;;7.23;;
6902;SDS011;20232;49.408;8.702;2023-02-18T19:12:18;7.83;;;7.10;;
6902;SDS011;20232;49.408;8.702;2023-02-18T19:14:44;8.10;;;7.30;;
6902;SDS011;20232;49.408;8.702;2023-02-18T19:17:10;8.20;;;7.40;;
6902;SDS011;20232;49.408;8.702;2023-02-18T19:19:35;8.23;;;7.37;;
6902;SDS011;20232;49.408;8.702;2023-02-18T19:22:01;8.00;;;7.30;;
6902;SDS011;20232;49.408;8.702;2023-02-18T19:24:26;8.70;;;7.73;;
6902;SDS011;20232;49.408;8.702;2023-02-18T19:26:52;8.43;;;7.60;;
6902;SDS011;20232;49.408;8.702;2023-02-18T19:29:17;8.43;;;7.63;;
6902;SDS011;20232;49.408;8.702;2023-02-18T19:31:44;8.70;;;7.80;;
6902;SDS011;20232;49.408;8.702;2023-02-18T19:34:10;8.67;;;7.70;;
6902;SDS011;20232;49.408;8.702;2023-02-18T19:36:35;8.57;;;7.20;;
6902;SDS011;20232;49.408;8.702;2023-02-18T19:39:01;7.80;;;7.10;;
6902;SDS011;20232;49.408;8.702;2023-02-18T19:41:27;8.50;;;7.63;;
6902;SDS011;20232;49.408;8.702;2023-02-18T19:43:53;8.47;;;7.60;;
6902;SDS011;20232;49.408;8.702;2023-02-18T19:46:18;8.17;;;7.40;;
6902;SDS011;20232;49.408;8.702;2023-02-18T19:48:48;7.77;;;7.17;;
6902;SDS011;20232;49.408;8.702;2023-02-18T19:51:15;8.30;;;7.40;;
6902;SDS011;20232;49.408;8.702;2023-02-18T19:53:40;7.83;;;6.97;;
6902;SDS011;20232;49.408;8.702;2023-02-18T19:56:06;8.33;;;7.63;;
6902;SDS011;20232;49.408;8.702;2023-02-18T19:58:32;8.33;;;7.43;;
6902;SDS011;20232;49.408;8.702;2023-02-18T20:00:58;7.90;;;7.20;;
6902;SDS011;20232;49.408;8.702;2023-02-18T20:03:24;8.03;;;7.33;;
6902;SDS011;20232;49.408;8.702;2023-02-18T20:05:49;7.73;;;7.10;;
6902;SDS011;20232;49.408;8.702;2023-02-18T20:08:15;8.13;;;7.33;;
6902;SDS011;20232;49.408;8.702;2023-02-18T20:10:40;7.27;;;6.57;;
6902;SDS011;20232;49.408;8.702;2023-02-18T20:13:06;8.00;;;7.30;;
6902;SDS011;20232;49.408;8.702;2023-02-18T20:15:36;7.97;;;7.23;;
6902;SDS011;20232;49.408;8.702;2023-02-18T20:18:03;7.70;;;6.90;;
6902;SDS011;20232;49.408;8.702;2023-02-18T20:20:29;7.97;;;7.20;;
6902;SDS011;20232;49.408;8.702;2023-02-18T20:22:55;8.17;;;7.33;;
6902;SDS011;20232;49.408;8.702;2023-02-18T20:25:20;7.47;;;6.80;;
6902;SDS011;20232;49.408;8.702;2023-02-18T20:27:46;7.67;;;6.87;;
6902;SDS011;20232;49.408;8.702;2023-02-18T20:30:11;7.50;;;6.73;;
6902;SDS011;20232;49.408;8.702;2023-02-18T20:32:37;7.63;;;6.93;;
6902;SDS011;20232;49.408;8.702;2023-02-18T20:35:03;7.27;;;6.57;;
6902;SDS011;20232;49.408;8.702;2023-02-18T20:37:29;7.37;;;6.67;;
6902;SDS011;20232;49.408;8.702;2023-02-18T20:39:55;7.73;;;7.00;;
6902;SDS011;20232;49.408;8.702;2023-02-18T20:42:21;7.40;;;6.60;;
6902;SDS011;20232;49.408;8.702;2023-02-18T20:44:47;7.47;;;6.70;;
6902;SDS011;20232;49.408;8.702;2023-02-18T20:47:13;7.87;;;7.07;;
6902;SDS011;20232;49.408;8.702;2023-02-18T20:49:40;7.27;;;6.63;;
6902;SDS011;20232;49.408;8.702;2023-02-18T20:52:06;7.93;;;7.10;;
6902;SDS011;20232;49.408;8.702;2023-02-18T20:54:32;10.00;;;6.83;;
6902;SDS011;20232;49.408;8.702;2023-02-18T20:56:58;7.60;;;6.90;;
6902;SDS011;20232;49.408;8.702;2023-02-18T20:59:24;7.63;;;6.90;;
6902;SDS011;20232;49.408;8.702;2023-02-18T21:01:50;7.50;;;6.80;;
6902;SDS011;20232;49.408;8.702;2023-02-18T21:04:17;7.83;;;7.03;;
6902;SDS011;20232;49.408;8.702;2023-02-18T21:06:44;7.90;;;6.50;;
6902;SDS011;20232;49.408;8.702;2023-02-18T21:09:11;7.20;;;6.60;;
6902;SDS011;20232;49.408;8.702;2023-02-18T21:11:37;8.53;;;6.97;;
6902;SDS011;20232;49.408;8.702;2023-02-18T21:14:03;7.93;;;6.40;;
6902;SDS011;20232;49.408;8.702;2023-02-18T21:16:29;6.70;;;6.10;;
6902;SDS011;20232;49.408;8.702;2023-02-18T21:18:56;6.67;;;5.90;;
6902;SDS011;20232;49.408;8.702;2023-02-18T21:21:22;7.27;;;6.57;;
6902;SDS011;20232;49.408;8.702;2023-02-18T21:23:49;6.57;;;5.90;;
6902;SDS011;20232;49.408;8.702;2023-02-18T21:26:16;7.10;;;6.50;;
6902;SDS011;20232;49.408;8.702;2023-02-18T21:28:47;7.37;;;6.67;;
6902;SDS011;20232;49.408;8.702;2023-02-18T21:31:18;7.03;;;6.43;;
6902;SDS011;20232;49.408;8.702;2023-02-18T21:33:45;7.73;;;6.50;;
6902;SDS011;20232;49.408;8.702;2023-02-18T21:36:11;6.90;;;6.30;;
6902;SDS011;20232;49.408;8.702;2023-02-18T21:38:38;7.53;;;6.70;;
6902;SDS011;20232;49.408;8.702;2023-02-18T21:41:04;6.27;;;5.67;;
6902;SDS011;20232;49.408;8.702;2023-02-18T21:43:30;7.33;;;6.63;;
6902;SDS011;20232;49.408;8.702;2023-02-18T21:46:08;6.87;;;6.17;;
6902;SDS011;20232;49.408;8.702;2023-02-18T21:48:37;6.37;;;5.77;;
6902;SDS011;20232;49.408;8.702;2023-02-18T21:51:40;6.50;;;5.90;;
6902;SDS011;20232;49.408;8.702;2023-02-18T21:54:33;6.33;;;5.80;;
6902;SDS011;20232;49.408;8.702;2023-02-18T21:57:01;6.70;;;6.00;;
6902;SDS011;20232;49.408;8.702;2023-02-18T21:59:28;7.10;;;6.40;;
6902;SDS011;20232;49.408;8.702;2023-02-18T22:01:56;6.37;;;5.87;;
6902;SDS011;20232;49.408;8.702;2023-02-18T22:04:26;7.10;;;6.33;;
6902;SDS011;20232;49.408;8.702;2023-02-18T22:06:52;7.13;;;6.43;;